Time;durP1;ratioP1;P1;durP2;ratioP2;P2;SDS_P1;SDS_P2;PMS_P1;PMS_P2;Temp;Humidity;BMP_temperature;BMP_pressure;BME280_temperature;BME280_humidity;BME280_pressure;Samples;Min_cycle;Max_cycle;Signal;HPM_P1;HPM_P2
2023/02/01 00:01:43;;;;;;;30.02;5.50;;;6.50;94.20;;;;;;5054416;28;20024;-71
2023/02/01 00:04:09;;;;;;;22.48;5.55;;;6.50;93.80;;;;;;5051177;28;20025;-72
2023/02/01 00:06:35;;;;;;;24.45;4.32;;;6.60;93.60;;;;;;5052092;28;20021;-72
2023/02/01 00:09:01;;;;;;;29.02;5.57;;;6.50;93.40;;;;;;5051390;28;20029;-72
2023/02/01 00:11:27;;;;;;;25.35;5.80;;;6.60;93.30;;;;;;5051906;28;20055;-72
2023/02/01 00:13:53;;;;;;;22.92;5.22;;;6.50;93.20;;;;;;5051194;28;20025;-72
2023/02/01 00:16:22;;;;;;;23.58;5.25;;;6.50;93.20;;;;;;5048370;28;20091;-72
2023/02/01 00:18:50;;;;;;;27.33;5.18;;;6.60;93.30;;;;;;5051478;28;20028;-73
2023/02/01 00:21:18;;;;;;;18.58;3.50;;;6.40;93.40;;;;;;5051956;28;20021;-74
2023/02/01 00:23:45;;;;;;;24.85;4.93;;;6.50;93.50;;;;;;5051386;28;20021;-73
2023/02/01 00:26:19;;;;;;;34.33;5.05;;;6.50;94.00;;;;;;5051205;28;20048;-73
2023/02/01 00:28:45;;;;;;;28.17;5.45;;;6.50;93.50;;;;;;5050947;28;20029;-73
2023/02/01 00:31:11;;;;;;;24.42;5.35;;;6.40;93.40;;;;;;5050688;28;20075;-72
2023/02/01 00:33:36;;;;;;;24.23;4.35;;;6.50;93.40;;;;;;5050367;28;20025;-73
2023/02/01 00:36:07;;;;;;;17.80;3.78;;;6.40;93.20;;;;;;5050730;28;20474;-72
2023/02/01 00:38:34;;;;;;;24.50;6.20;;;6.40;93.20;;;;;;5050835;28;20470;-73
2023/02/01 00:41:07;;;;;;;24.08;4.88;;;6.50;93.30;;;;;;5058845;28;20449;-72
2023/02/01 00:43:33;;;;;;;24.15;4.57;;;6.50;93.20;;;;;;5053395;28;20036;-72
2023/02/01 00:45:59;;;;;;;21.98;4.53;;;6.50;93.30;;;;;;5056901;28;20074;-73
2023/02/01 00:48:25;;;;;;;22.52;4.55;;;6.40;93.20;;;;;;5050520;28;20025;-73
2023/02/01 00:50:51;;;;;;;20.45;4.65;;;6.40;93.20;;;;;;5049771;28;20132;-72
2023/02/01 00:53:17;;;;;;;22.23;5.28;;;6.50;93.20;;;;;;5039245;28;20140;-72
2023/02/01 00:55:47;;;;;;;22.65;4.00;;;6.50;93.20;;;;;;5040722;28;20029;-73
2023/02/01 00:58:14;;;;;;;23.80;4.60;;;6.50;93.20;;;;;;5051226;28;20028;-72
2023/02/01 01:00:40;;;;;;;22.90;5.65;;;6.50;93.20;;;;;;5050624;28;20017;-72
2023/02/01 01:03:17;;;;;;;23.25;4.70;;;6.60;93.30;;;;;;5041837;28;20075;-72
2023/02/01 01:05:50;;;;;;;21.77;4.00;;;6.60;93.30;;;;;;5050698;28;20021;-72
2023/02/01 01:08:16;;;;;;;19.60;4.72;;;6.60;93.50;;;;;;5051148;28;20017;-73
2023/02/01 01:10:43;;;;;;;24.65;4.75;;;6.60;93.30;;;;;;5051311;28;20025;-73
2023/02/01 01:13:09;;;;;;;26.67;4.35;;;6.60;93.20;;;;;;5039699;28;20065;-72
2023/02/01 01:15:39;;;;;;;22.27;4.82;;;6.60;93.30;;;;;;5048498;28;20080;-72
2023/02/01 01:18:06;;;;;;;23.67;4.45;;;6.60;93.20;;;;;;5049422;28;20090;-72
2023/02/01 01:20:34;;;;;;;20.77;4.35;;;6.60;93.20;;;;;;5053356;28;20020;-73
2023/02/01 01:22:59;;;;;;;21.98;4.13;;;6.70;93.30;;;;;;5052524;28;20364;-72
2023/02/01 01:25:25;;;;;;;26.70;5.28;;;6.60;93.50;;;;;;5042751;28;20113;-72
2023/02/01 01:27:51;;;;;;;23.77;5.05;;;6.60;93.30;;;;;;5050278;28;20486;-72
2023/02/01 01:30:17;;;;;;;26.00;4.70;;;6.70;93.30;;;;;;5054886;28;20029;-73
2023/02/01 01:32:44;;;;;;;21.58;3.72;;;6.70;93.30;;;;;;5051464;28;20033;-73
2023/02/01 01:35:10;;;;;;;18.08;4.57;;;6.60;93.60;;;;;;5051811;28;20465;-72
2023/02/01 01:37:35;;;;;;;19.23;4.03;;;6.60;93.50;;;;;;5051001;28;20048;-72
2023/02/01 01:40:02;;;;;;;22.98;5.18;;;6.60;93.60;;;;;;5049970;28;20033;-73
2023/02/01 01:42:28;;;;;;;25.63;6.55;;;6.60;93.60;;;;;;5050158;28;20105;-73
2023/02/01 01:45:07;;;;;;;27.17;6.43;;;6.60;93.80;;;;;;5050177;28;20538;-72
2023/02/01 01:47:41;;;;;;;29.35;5.75;;;6.60;93.90;;;;;;5048800;28;20075;-73
2023/02/01 01:50:10;;;;;;;24.15;5.25;;;6.50;94.10;;;;;;5042911;28;20574;-73
2023/02/01 01:52:37;;;;;;;25.95;5.90;;;6.50;94.10;;;;;;5051164;28;20055;-73
2023/02/01 01:55:04;;;;;;;23.35;5.13;;;6.60;94.10;;;;;;5042543;28;20102;-72
2023/02/01 01:57:39;;;;;;;25.73;4.93;;;6.50;94.10;;;;;;5052523;28;20034;-73
2023/02/01 02:00:15;;;;;;;35.97;7.13;;;6.50;94.10;;;;;;5045092;28;20033;-73
2023/02/01 02:02:44;;;;;;;29.00;7.63;;;6.50;94.30;;;;;;5049532;28;20070;-73
2023/02/01 02:05:11;;;;;;;26.75;6.60;;;6.50;94.30;;;;;;5041409;28;20041;-73
2023/02/01 02:07:41;;;;;;;28.85;6.43;;;6.50;94.40;;;;;;5051246;28;20100;-72
2023/02/01 02:10:10;;;;;;;;;;;6.50;94.30;;;;;;5050081;28;20427;-72
2023/02/01 02:12:39;;;;;;;27.98;6.32;;;6.50;94.30;;;;;;5040200;28;20275;-73
2023/02/01 02:15:06;;;;;;;23.13;5.35;;;6.50;94.20;;;;;;5041891;28;20725;-71
2023/02/01 02:17:53;;;;;;;39.08;9.15;;;6.40;94.30;;;;;;5044764;28;20104;-71
2023/02/01 02:20:45;;;;;;;23.45;6.25;;;6.40;94.40;;;;;;5031421;28;20103;-73
2023/02/01 02:23:29;;;;;;;36.17;8.00;;;6.50;94.30;;;;;;5049909;28;20032;-72
2023/02/01 02:26:13;;;;;;;36.17;11.52;;;6.50;94.20;;;;;;5049991;28;20049;-72
2023/02/01 02:29:16;;;;;;;22.15;5.97;;;6.60;94.20;;;;;;5049533;28;20491;-72
2023/02/01 02:31:56;;;;;;;27.45;5.45;;;6.50;94.20;;;;;;5048845;28;20032;-71
2023/02/01 02:34:28;;;;;;;32.92;7.35;;;6.50;94.10;;;;;;5046119;28;20025;-72
2023/02/01 02:37:12;;;;;;;34.60;7.03;;;6.60;94.00;;;;;;5048621;28;20021;-73
2023/02/01 02:40:06;;;;;;;36.20;8.50;;;6.60;94.10;;;;;;5049115;28;20525;-71
2023/02/01 02:48:42;;;;;;;38.05;8.68;;;6.50;94.00;;;;;;5049806;28;20071;-72
2023/02/01 02:54:45;;;;;;;27.52;5.72;;;6.50;94.10;;;;;;5047605;28;20039;-73
2023/02/01 03:05:39;;;;;;;27.48;5.80;;;6.30;94.50;;;;;;5049170;28;20036;-73
2023/02/01 03:08:34;;;;;;;28.00;5.53;;;6.30;94.60;;;;;;5047684;28;20544;-72
2023/02/01 03:11:02;;;;;;;16.45;4.53;;;6.30;94.70;;;;;;5051606;28;20048;-72
2023/02/01 03:13:46;;;;;;;21.00;4.63;;;6.30;94.80;;;;;;5046873;28;20033;-72
2023/02/01 03:16:13;;;;;;;24.92;5.05;;;6.30;94.90;;;;;;5055614;28;20056;-71
2023/02/01 03:18:59;;;;;;;27.58;4.75;;;6.30;94.90;;;;;;5052526;28;20059;-72
2023/02/01 03:21:49;;;;;;;25.17;4.72;;;6.30;94.90;;;;;;5052601;28;20029;-73
2023/02/01 03:24:32;;;;;;;26.83;5.28;;;6.20;95.00;;;;;;5047013;28;20030;-73
2023/02/01 03:27:05;;;;;;;27.88;6.35;;;6.20;95.20;;;;;;5053766;28;20522;-72
2023/02/01 03:29:44;;;;;;;27.85;5.32;;;6.20;95.20;;;;;;5054173;28;20035;-74
2023/02/01 03:32:10;;;;;;;20.98;4.68;;;6.30;95.30;;;;;;5053112;28;20025;-71
2023/02/01 03:34:36;;;;;;;27.85;5.35;;;6.30;95.20;;;;;;5048711;28;20449;-74
2023/02/01 03:37:05;;;;;;;26.25;4.80;;;6.40;95.10;;;;;;5052993;28;20108;-73
2023/02/01 03:39:37;;;;;;;19.77;4.87;;;6.30;95.30;;;;;;5053822;28;20032;-72
2023/02/01 03:42:10;;;;;;;28.52;5.50;;;6.40;95.20;;;;;;5041317;28;20326;-72
2023/02/01 03:44:40;;;;;;;31.63;5.32;;;6.40;95.20;;;;;;5049892;28;20487;-72
2023/02/01 03:47:21;;;;;;;33.58;6.47;;;6.40;95.30;;;;;;5052743;28;20479;-73
2023/02/01 03:49:52;;;;;;;30.08;5.10;;;6.50;95.20;;;;;;5052692;28;20057;-72
2023/02/01 03:52:46;;;;;;;18.75;4.70;;;6.60;95.20;;;;;;5040248;28;20026;-72
2023/02/01 03:55:14;;;;;;;29.80;6.05;;;6.60;95.30;;;;;;5040343;28;20118;-72
2023/02/01 03:58:09;;;;;;;26.80;6.07;;;6.60;95.40;;;;;;5042467;28;20029;-72
2023/02/01 04:00:34;;;;;;;26.48;6.60;;;6.70;95.10;;;;;;5051516;28;20098;-72
2023/02/01 04:03:02;;;;;;;33.55;5.70;;;6.70;95.00;;;;;;5052207;28;20099;-73
2023/02/01 04:05:30;;;;;;;28.65;7.22;;;6.70;95.00;;;;;;5055789;28;20791;-73
2023/02/01 04:07:56;;;;;;;31.42;5.35;;;6.70;95.00;;;;;;5052340;28;20024;-71
2023/02/01 04:10:22;;;;;;;33.95;7.10;;;6.80;94.90;;;;;;5052366;28;20040;-71
2023/02/01 04:12:48;;;;;;;31.08;4.90;;;6.70;94.90;;;;;;5058523;28;20037;-73
2023/02/01 04:15:14;;;;;;;21.48;4.78;;;6.70;94.90;;;;;;5052600;28;20124;-72
2023/02/01 04:17:40;;;;;;;27.50;4.00;;;6.70;95.00;;;;;;5053069;28;20530;-73
2023/02/01 04:20:06;;;;;;;29.70;6.20;;;6.70;95.10;;;;;;5052193;28;20028;-72
2023/02/01 04:22:32;;;;;;;29.77;4.90;;;6.70;95.00;;;;;;5049725;28;20517;-72
2023/02/01 04:24:58;;;;;;;25.15;4.43;;;6.80;95.20;;;;;;5047554;28;20034;-72
2023/02/01 04:27:23;;;;;;;27.48;5.57;;;6.80;95.10;;;;;;5051383;28;20486;-74
2023/02/01 04:29:49;;;;;;;28.10;4.88;;;6.80;95.00;;;;;;5050058;28;20037;-72
2023/02/01 04:32:16;;;;;;;32.97;5.57;;;6.70;95.00;;;;;;5051510;28;20021;-73
2023/02/01 04:34:42;;;;;;;20.48;4.38;;;6.80;94.90;;;;;;5047586;28;20501;-72
2023/02/01 04:37:08;;;;;;;21.05;4.40;;;6.80;94.90;;;;;;5045369;28;20013;-74
2023/02/01 04:39:33;;;;;;;30.02;5.53;;;6.80;94.80;;;;;;5053592;28;20032;-73
2023/02/01 04:41:59;;;;;;;24.65;5.10;;;6.90;94.80;;;;;;5059257;28;20033;-72
2023/02/01 04:44:24;;;;;;;24.15;4.63;;;6.90;94.60;;;;;;5050503;28;20390;-73
2023/02/01 04:46:50;;;;;;;26.38;5.13;;;7.00;94.50;;;;;;5049446;28;20021;-72
2023/02/01 04:49:16;;;;;;;21.90;4.22;;;7.00;94.40;;;;;;5051190;28;20068;-73
2023/02/01 04:51:43;;;;;;;24.25;6.00;;;7.10;94.30;;;;;;5051311;28;20032;-73
2023/02/01 04:54:11;;;;;;;27.88;5.55;;;7.10;94.20;;;;;;5051338;28;20037;-73
2023/02/01 04:56:37;;;;;;;21.73;4.95;;;7.10;94.10;;;;;;5052569;28;20025;-73
2023/02/01 04:59:04;;;;;;;18.92;3.90;;;7.20;94.00;;;;;;5050323;28;20511;-73
2023/02/01 05:01:30;;;;;;;28.05;5.82;;;7.20;93.90;;;;;;5050285;28;20037;-73
2023/02/01 05:03:58;;;;;;;28.25;4.80;;;7.30;94.00;;;;;;5041839;28;20061;-72
2023/02/01 05:06:24;;;;;;;32.55;4.65;;;7.30;93.80;;;;;;5050606;28;20653;-72
2023/02/01 05:08:50;;;;;;;18.40;4.57;;;7.30;93.70;;;;;;5050269;28;20025;-73
2023/02/01 05:14:00;;;;;;;22.30;4.35;;;7.30;93.60;;;;;;5049400;28;20028;-72
2023/02/01 05:16:26;;;;;;;29.42;5.50;;;7.40;93.50;;;;;;5048667;28;20163;-72
2023/02/01 05:18:53;;;;;;;20.33;4.63;;;7.50;93.30;;;;;;5052354;28;20104;-72
2023/02/01 05:21:20;;;;;;;22.45;4.00;;;7.50;93.50;;;;;;5050226;28;20029;-72
2023/02/01 05:26:30;;;;;;;19.88;4.03;;;7.50;93.30;;;;;;5045184;28;20052;-73
2023/02/01 05:28:56;;;;;;;22.38;4.47;;;7.60;93.10;;;;;;5051301;28;20028;-72
2023/02/01 05:31:21;;;;;;;23.60;4.95;;;7.60;93.20;;;;;;5050751;28;20415;-72
2023/02/01 05:33:48;;;;;;;17.95;3.70;;;7.50;93.00;;;;;;5050443;28;20075;-71
2023/02/01 05:36:14;;;;;;;24.98;5.80;;;7.60;93.10;;;;;;5049972;28;20442;-72
2023/02/01 05:38:40;;;;;;;26.42;5.00;;;7.60;93.10;;;;;;5048587;28;20028;-72
2023/02/01 05:41:05;;;;;;;20.60;4.28;;;7.60;93.30;;;;;;5038625;28;20049;-73
2023/02/01 05:43:31;;;;;;;19.58;4.07;;;7.60;93.10;;;;;;5049011;28;20025;-73
2023/02/01 05:45:57;;;;;;;19.67;4.50;;;7.60;93.00;;;;;;5048952;28;20762;-73
2023/02/01 05:48:22;;;;;;;29.40;4.80;;;7.70;93.10;;;;;;5046826;28;20031;-72
2023/02/01 05:50:48;;;;;;;23.77;4.45;;;7.60;92.90;;;;;;5037443;28;20441;-72
2023/02/01 05:53:14;;;;;;;26.58;5.63;;;7.70;93.00;;;;;;5049333;28;20060;-72
2023/02/01 05:55:41;;;;;;;27.38;5.25;;;7.70;93.10;;;;;;5037809;28;20044;-71
2023/02/01 05:58:06;;;;;;;19.58;4.07;;;7.70;92.90;;;;;;5043597;28;20078;-72
2023/02/01 06:00:32;;;;;;;17.15;4.40;;;7.60;93.10;;;;;;5048865;28;20013;-73
2023/02/01 06:02:57;;;;;;;27.88;5.32;;;7.60;93.10;;;;;;5048853;28;20111;-72
2023/02/01 06:05:23;;;;;;;30.05;5.13;;;7.60;93.10;;;;;;5049344;28;20032;-71
2023/02/01 06:07:52;;;;;;;25.70;5.18;;;7.60;93.00;;;;;;5048971;28;20425;-72
2023/02/01 06:10:18;;;;;;;23.80;5.32;;;7.70;93.10;;;;;;5048713;28;20479;-72
2023/02/01 06:12:44;;;;;;;28.48;5.70;;;7.60;93.10;;;;;;5048752;28;20017;-72
2023/02/01 06:15:11;;;;;;;29.70;5.38;;;7.70;93.00;;;;;;5048741;28;20037;-72
2023/02/01 06:17:38;;;;;;;24.17;5.75;;;7.60;93.10;;;;;;5049209;28;20029;-72
2023/02/01 06:20:06;;;;;;;35.55;7.65;;;7.60;93.10;;;;;;5048105;28;20392;-72
2023/02/01 06:22:32;;;;;;;25.42;5.10;;;7.70;93.00;;;;;;5043141;28;20021;-73
2023/02/01 06:24:58;;;;;;;22.83;5.40;;;7.70;93.40;;;;;;5037254;28;20394;-72
2023/02/01 06:27:24;;;;;;;26.45;5.57;;;7.60;92.90;;;;;;5040587;28;20025;-72
2023/02/01 06:29:50;;;;;;;25.65;4.28;;;7.70;93.50;;;;;;5042363;28;20017;-73
2023/02/01 06:32:17;;;;;;;22.23;5.80;;;7.70;93.00;;;;;;5037933;28;20025;-72
2023/02/01 06:34:43;;;;;;;20.60;4.13;;;7.70;92.90;;;;;;5048082;28;20032;-73
2023/02/01 06:37:10;;;;;;;19.67;4.10;;;7.70;93.00;;;;;;5048560;28;20009;-72
2023/02/01 06:39:36;;;;;;;21.23;4.55;;;7.70;92.70;;;;;;5047437;28;20035;-73
2023/02/01 06:42:03;;;;;;;27.02;5.07;;;7.70;93.00;;;;;;5035910;28;20024;-72
2023/02/01 06:44:28;;;;;;;25.63;4.55;;;7.70;93.10;;;;;;5035508;28;20484;-73
2023/02/01 06:46:54;;;;;;;30.63;9.00;;;7.70;93.00;;;;;;5046162;28;20032;-72
2023/02/01 06:49:20;;;;;;;29.40;10.02;;;7.80;92.90;;;;;;5046461;28;20025;-72
2023/02/01 06:51:46;;;;;;;22.73;5.15;;;7.80;92.90;;;;;;5036785;28;20083;-73
2023/02/01 06:54:12;;;;;;;21.83;4.40;;;7.70;93.00;;;;;;5046991;28;20483;-73
2023/02/01 06:56:38;;;;;;;20.13;4.43;;;7.80;93.00;;;;;;5042083;28;20037;-73
2023/02/01 06:59:05;;;;;;;22.70;5.03;;;7.70;92.90;;;;;;5043792;28;20017;-72
2023/02/01 07:01:30;;;;;;;19.02;5.22;;;7.80;92.90;;;;;;5048059;28;20048;-73
2023/02/01 07:03:56;;;;;;;21.70;4.30;;;7.70;92.90;;;;;;5046553;28;20052;-74
2023/02/01 07:06:22;;;;;;;25.50;5.88;;;7.70;92.80;;;;;;5047881;28;20500;-72
2023/02/01 07:08:48;;;;;;;23.45;5.28;;;7.70;93.00;;;;;;5047856;28;20026;-74
2023/02/01 07:11:15;;;;;;;26.13;5.70;;;7.70;93.00;;;;;;5045547;28;20083;-74
2023/02/01 07:13:41;;;;;;;25.33;6.20;;;7.70;93.10;;;;;;5045915;28;20029;-72
2023/02/01 07:16:10;;;;;;;27.88;4.47;;;7.70;93.20;;;;;;5040400;28;20356;-73
2023/02/01 07:18:36;;;;;;;23.83;5.22;;;7.70;93.10;;;;;;5044356;28;20033;-73
2023/02/01 07:21:01;;;;;;;21.10;5.10;;;7.70;93.30;;;;;;5045393;28;20083;-73
2023/02/01 07:23:28;;;;;;;20.63;4.32;;;7.60;93.00;;;;;;5044954;28;20027;-74
2023/02/01 07:25:58;;;;;;;22.42;5.53;;;7.70;93.50;;;;;;5045753;28;20053;-74
2023/02/01 07:28:25;;;;;;;23.55;7.03;;;7.60;93.20;;;;;;5039754;28;20088;-74
2023/02/01 07:30:50;;;;;;;28.25;5.97;;;7.60;93.30;;;;;;5044997;28;20033;-73
2023/02/01 07:33:21;;;;;;;25.95;4.72;;;7.60;93.20;;;;;;5044523;28;20048;-74
2023/02/01 07:35:49;;;;;;;23.75;5.30;;;7.50;93.30;;;;;;5041513;28;20041;-73
2023/02/01 07:38:14;;;;;;;24.42;5.35;;;7.50;93.30;;;;;;5046947;28;20041;-73
2023/02/01 07:40:41;;;;;;;28.95;5.63;;;7.50;93.40;;;;;;5042962;28;20091;-73
2023/02/01 07:43:07;;;;;;;22.08;5.45;;;7.60;93.40;;;;;;5045671;28;20032;-73
2023/02/01 07:45:37;;;;;;;23.42;4.90;;;7.60;93.20;;;;;;5045483;28;20021;-73
2023/02/01 07:48:03;;;;;;;45.03;17.00;;;7.50;93.50;;;;;;5045082;28;20025;-73
2023/02/01 07:50:30;;;;;;;23.17;6.05;;;7.50;93.50;;;;;;5046002;28;20117;-74
2023/02/01 07:52:58;;;;;;;57.72;21.85;;;7.60;93.70;;;;;;5033378;28;20058;-73
2023/02/01 07:55:24;;;;;;;28.70;8.30;;;7.60;93.60;;;;;;5045401;28;20447;-74
2023/02/01 07:57:50;;;;;;;24.50;5.80;;;7.60;93.40;;;;;;5043898;28;20036;-74
2023/02/01 08:03:00;;;;;;;147.32;87.70;;;7.60;93.50;;;;;;5036044;28;20658;-74
2023/02/01 08:05:27;;;;;;;59.55;31.00;;;7.60;93.40;;;;;;5048836;28;20123;-73
2023/02/01 08:07:52;;;;;;;21.27;5.07;;;7.70;93.50;;;;;;5048045;28;20078;-74
2023/02/01 08:10:19;;;;;;;25.60;6.13;;;7.70;93.10;;;;;;5048152;28;20025;-74
2023/02/01 08:12:51;;;;;;;24.23;8.40;;;7.70;93.10;;;;;;5048359;28;20040;-73
2023/02/01 08:15:18;;;;;;;21.10;4.75;;;7.70;93.20;;;;;;5044410;28;20086;-73
2023/02/01 08:17:48;;;;;;;30.73;6.38;;;7.70;93.20;;;;;;5049974;28;20035;-72
2023/02/01 08:20:13;;;;;;;24.70;7.10;;;7.70;93.10;;;;;;5050051;28;20024;-74
2023/02/01 08:22:39;;;;;;;23.92;4.72;;;7.90;93.10;;;;;;5050659;28;20514;-73
2023/02/01 08:25:05;;;;;;;29.48;14.52;;;7.90;92.90;;;;;;5046192;28;20040;-75
2023/02/01 08:27:33;;;;;;;26.13;6.20;;;8.00;92.80;;;;;;5050085;28;20435;-75
2023/02/01 08:29:59;;;;;;;20.55;5.20;;;7.90;92.80;;;;;;5046831;28;20060;-77
2023/02/01 08:32:25;;;;;;;28.80;4.55;;;7.90;92.90;;;;;;5048080;28;20029;-75
2023/02/01 08:34:50;;;;;;;20.85;5.18;;;7.80;92.80;;;;;;5051863;28;20147;-76
2023/02/01 08:37:17;;;;;;;28.23;5.45;;;7.90;93.10;;;;;;5047826;28;20521;-76
2023/02/01 08:39:50;;;;;;;28.38;9.63;;;7.90;92.80;;;;;;5047333;28;20071;-76
2023/02/01 08:45:02;;;;;;;22.77;5.22;;;8.40;92.30;;;;;;5047384;28;20024;-76
2023/02/01 08:47:28;;;;;;;81.00;50.97;;;8.70;91.50;;;;;;5049416;28;20029;-77
2023/02/01 08:49:54;;;;;;;45.17;19.42;;;8.80;91.20;;;;;;5048435;28;20067;-76
2023/02/01 08:52:20;;;;;;;23.10;9.00;;;9.00;91.10;;;;;;5049038;28;20021;-76
2023/02/01 08:54:45;;;;;;;29.38;13.98;;;9.30;91.10;;;;;;5046324;28;20037;-77
2023/02/01 08:57:11;;;;;;;24.77;6.82;;;9.70;89.70;;;;;;5047363;28;20391;-74
2023/02/01 08:59:37;;;;;;;24.15;4.60;;;10.10;87.80;;;;;;5048407;28;20021;-78
2023/02/01 09:02:03;;;;;;;15.20;4.28;;;10.20;86.40;;;;;;5049263;28;20053;-76
2023/02/01 09:04:29;;;;;;;22.27;12.60;;;10.30;86.40;;;;;;5048058;28;20021;-77
2023/02/01 09:06:55;;;;;;;19.90;5.03;;;10.50;87.20;;;;;;5049094;28;20096;-76
2023/02/01 09:09:22;;;;;;;14.95;3.42;;;10.70;85.60;;;;;;5050025;28;20021;-76
2023/02/01 09:11:49;;;;;;;22.40;4.38;;;10.90;84.70;;;;;;5050432;28;20067;-77
2023/02/01 09:14:14;;;;;;;17.55;4.35;;;10.90;84.50;;;;;;5051832;28;20119;-73
2023/02/01 09:16:40;;;;;;;13.52;3.67;;;10.90;84.00;;;;;;5053233;28;20105;-75
2023/02/01 09:19:05;;;;;;;16.92;4.53;;;10.90;84.80;;;;;;5053395;28;20021;-75
2023/02/01 09:21:31;;;;;;;16.95;3.67;;;10.60;83.30;;;;;;5051986;28;20376;-74
2023/02/01 09:23:58;;;;;;;13.23;3.55;;;10.30;86.60;;;;;;5059100;28;20020;-74
2023/02/01 09:26:25;;;;;;;19.38;5.30;;;10.20;89.20;;;;;;5051964;28;20136;-74
2023/02/01 09:28:51;;;;;;;22.55;4.22;;;10.20;86.90;;;;;;5052930;28;20067;-75
2023/02/01 09:31:18;;;;;;;18.40;4.35;;;10.20;86.40;;;;;;5051588;28;20048;-74
2023/02/01 09:33:44;;;;;;;24.55;5.53;;;10.00;86.70;;;;;;5052942;28;20387;-74
2023/02/01 09:36:10;;;;;;;17.42;4.00;;;9.90;87.30;;;;;;5055412;28;20116;-74
2023/02/01 09:38:35;;;;;;;19.45;4.63;;;9.90;88.20;;;;;;5052517;28;20029;-74
2023/02/01 09:41:06;;;;;;;18.58;3.45;;;10.00;88.10;;;;;;5047335;28;20025;-73
2023/02/01 09:43:47;;;;;;;16.75;3.60;;;9.90;86.80;;;;;;5050998;28;20076;-74
2023/02/01 09:46:19;;;;;;;;;;;10.00;88.20;;;;;;5058855;28;20502;-73
2023/02/01 09:48:46;;;;;;;17.85;5.43;;;9.90;88.10;;;;;;5050702;28;20390;-74
2023/02/01 09:51:23;;;;;;;22.95;4.40;;;9.90;87.70;;;;;;5050271;28;20471;-75
2023/02/01 09:54:04;;;;;;;13.98;4.03;;;9.80;88.70;;;;;;5048064;28;20021;-74
2023/02/01 09:56:39;;;;;;;17.80;5.45;;;9.60;89.70;;;;;;5041407;28;20048;-75
2023/02/01 09:59:30;;;;;;;17.10;4.22;;;9.50;89.50;;;;;;5050209;28;20132;-75
2023/02/01 10:01:56;;;;;;;21.95;5.32;;;9.40;89.30;;;;;;5048612;28;20032;-73
2023/02/01 10:04:22;;;;;;;25.65;4.60;;;9.40;90.20;;;;;;5049422;28;20071;-73
2023/02/01 10:06:57;;;;;;;24.80;5.75;;;9.30;90.10;;;;;;5043241;28;20056;-73
2023/02/01 10:09:55;;;;;;;19.75;4.63;;;9.20;90.20;;;;;;5048955;28;20036;-74
2023/02/01 10:12:26;;;;;;;22.63;4.32;;;9.10;90.10;;;;;;5041582;28;20032;-74
2023/02/01 10:14:55;;;;;;;17.63;3.72;;;9.20;91.20;;;;;;5049922;28;20534;-73
2023/02/01 10:17:44;;;;;;;23.85;5.70;;;9.20;91.00;;;;;;5053976;28;20021;-74
2023/02/01 10:20:16;;;;;;;26.03;5.83;;;9.20;91.10;;;;;;5036476;28;20037;-74
2023/02/01 10:22:51;;;;;;;23.13;4.63;;;9.10;90.70;;;;;;5045569;28;20025;-74
2023/02/01 10:25:47;;;;;;;33.40;6.25;;;9.00;90.50;;;;;;5049756;28;20144;-74
2023/02/01 10:28:17;;;;;;;23.33;4.45;;;9.00;91.10;;;;;;5038908;28;20051;-73
2023/02/01 10:30:47;;;;;;;28.85;6.72;;;9.10;91.10;;;;;;5047764;28;20024;-73
2023/02/01 10:33:18;;;;;;;26.52;4.18;;;8.90;91.40;;;;;;5042106;28;20025;-73
2023/02/01 10:35:49;;;;;;;26.83;5.88;;;8.90;92.20;;;;;;5050244;28;20047;-74
2023/02/01 10:38:26;;;;;;;25.48;4.82;;;8.80;92.60;;;;;;5048497;28;20025;-73
2023/02/01 10:41:01;;;;;;;19.77;5.05;;;8.70;93.10;;;;;;5048951;28;20139;-74
2023/02/01 10:43:27;;;;;;;21.40;5.45;;;8.70;93.30;;;;;;5049205;28;20368;-73
2023/02/01 10:45:56;;;;;;;27.17;5.53;;;8.70;93.70;;;;;;5048198;28;20340;-74
2023/02/01 10:48:22;;;;;;;22.83;5.75;;;8.60;93.60;;;;;;5049099;28;20020;-74
2023/02/01 10:51:02;;;;;;;33.20;4.93;;;8.60;93.90;;;;;;5045552;28;20025;-73
2023/02/01 10:53:44;;;;;;;22.27;5.87;;;8.60;94.00;;;;;;5033912;28;20021;-73
2023/02/01 10:56:11;;;;;;;30.50;10.75;;;8.50;94.30;;;;;;5045821;28;20048;-75
2023/02/01 10:58:45;;;;;;;21.65;4.68;;;8.40;94.70;;;;;;5050602;28;20021;-75
2023/02/01 11:01:21;;;;;;;28.48;5.00;;;8.30;94.70;;;;;;5047954;28;20111;-73
2023/02/01 11:03:52;;;;;;;25.60;5.80;;;8.30;95.20;;;;;;5049636;28;20538;-73
2023/02/01 11:06:28;;;;;;;23.50;4.90;;;8.20;95.50;;;;;;5047671;28;20029;-74
2023/02/01 11:08:57;;;;;;;33.67;6.40;;;8.20;95.50;;;;;;5047001;28;20024;-74
2023/02/01 11:11:24;;;;;;;23.13;4.82;;;8.20;95.50;;;;;;5048158;28;20025;-74
2023/02/01 11:13:57;;;;;;;21.15;6.00;;;8.20;95.60;;;;;;5050460;28;20115;-74
2023/02/01 11:16:30;;;;;;;22.42;4.03;;;8.10;95.50;;;;;;5044416;28;20037;-73
2023/02/01 11:18:58;;;;;;;24.85;5.28;;;8.20;95.60;;;;;;5047416;28;20025;-74
2023/02/01 11:21:24;;;;;;;24.73;4.65;;;8.20;94.80;;;;;;5045419;28;20482;-74
2023/02/01 11:23:50;;;;;;;27.33;5.10;;;8.10;95.00;;;;;;5047336;28;20053;-73
2023/02/01 11:26:24;;;;;;;15.60;4.22;;;8.20;94.80;;;;;;5047658;28;20674;-72
2023/02/01 11:29:12;;;;;;;17.52;3.85;;;8.20;94.80;;;;;;5046283;28;20060;-72
2023/02/01 11:31:41;;;;;;;19.52;6.53;;;8.20;94.40;;;;;;5046827;28;20379;-75
2023/02/01 11:34:22;;;;;;;24.60;4.07;;;8.20;94.30;;;;;;5048351;28;20040;-74
2023/02/01 11:36:50;;;;;;;34.92;11.13;;;8.20;94.00;;;;;;5047471;28;20021;-75
2023/02/01 11:39:22;;;;;;;35.28;13.45;;;8.30;94.00;;;;;;5051750;28;20086;-74
2023/02/01 11:42:16;;;;;;;24.92;7.03;;;8.30;94.20;;;;;;5049359;28;20391;-73
2023/02/01 11:44:46;;;;;;;30.90;8.73;;;8.30;94.20;;;;;;5050662;28;20029;-74
2023/02/01 11:47:21;;;;;;;;;;;8.30;94.60;;;;;;5050151;28;20021;-73
2023/02/01 11:49:58;;;;;;;20.27;4.55;;;8.30;94.80;;;;;;5049773;28;19939;-74
2023/02/01 11:52:37;;;;;;;18.05;3.90;;;8.20;94.60;;;;;;5045623;28;20028;-74
2023/02/01 11:55:17;;;;;;;20.20;5.05;;;8.30;95.10;;;;;;5051412;28;20025;-76
2023/02/01 11:57:53;;;;;;;22.60;4.28;;;8.20;94.50;;;;;;5049398;28;20106;-73
2023/02/01 12:00:31;;;;;;;22.73;4.65;;;8.20;94.30;;;;;;5045239;28;20960;-74
2023/02/01 12:03:29;;;;;;;26.35;4.75;;;8.30;94.30;;;;;;5044946;28;20032;-75
2023/02/01 12:06:36;;;;;;;17.92;4.10;;;8.30;94.20;;;;;;5044448;28;20414;-75
2023/02/01 12:09:38;;;;;;;24.25;5.28;;;8.40;94.40;;;;;;5044474;28;20099;-74
2023/02/01 12:12:06;;;;;;;19.23;5.05;;;8.50;94.70;;;;;;5044646;28;20021;-74
2023/02/01 12:15:00;;;;;;;28.23;3.80;;;8.60;94.40;;;;;;5048747;28;20029;-74
2023/02/01 12:17:36;;;;;;;21.15;5.07;;;8.60;94.30;;;;;;5048434;28;20112;-74
2023/02/01 12:20:32;;;;;;;22.98;4.10;;;8.60;94.20;;;;;;5043919;28;20021;-74
2023/02/01 12:23:16;;;;;;;85.25;31.42;;;8.60;94.10;;;;;;5038359;28;20124;-73
2023/02/01 12:26:01;;;;;;;24.83;4.90;;;8.60;93.90;;;;;;5045599;28;20049;-73
2023/02/01 12:28:43;;;;;;;27.35;7.78;;;8.60;93.50;;;;;;5045310;28;20036;-73
2023/02/01 12:31:35;;;;;;;19.67;4.07;;;8.70;93.90;;;;;;5045002;28;20029;-74
2023/02/01 12:34:17;;;;;;;19.95;4.95;;;8.70;93.40;;;;;;5042953;28;20025;-74
2023/02/01 12:37:13;;;;;;;26.67;5.15;;;8.80;93.40;;;;;;5057195;28;20044;-73
2023/02/01 12:39:40;;;;;;;20.35;4.18;;;8.80;93.10;;;;;;5038147;28;20029;-74
2023/02/01 12:42:11;;;;;;;24.58;4.15;;;8.90;93.30;;;;;;5041690;28;20033;-73
2023/02/01 12:44:43;;;;;;;24.90;4.53;;;9.00;93.40;;;;;;5043304;28;20051;-73
2023/02/01 12:47:22;;;;;;;15.73;3.80;;;9.00;92.70;;;;;;5041390;28;20028;-73
2023/02/01 12:49:54;;;;;;;18.98;4.22;;;9.10;92.90;;;;;;5044845;28;20024;-73
2023/02/01 12:52:45;;;;;;;17.15;3.65;;;9.10;93.30;;;;;;5044590;28;20022;-73
2023/02/01 12:55:17;;;;;;;24.77;4.70;;;9.20;93.10;;;;;;5043129;28;20500;-72
2023/02/01 12:57:47;;;;;;;19.73;5.63;;;9.20;92.90;;;;;;5052818;28;20521;-74
2023/02/01 13:00:22;;;;;;;17.98;3.38;;;9.10;92.50;;;;;;5038762;28;20021;-73
2023/02/01 13:03:02;;;;;;;17.85;3.67;;;9.10;92.60;;;;;;5056773;28;20403;-74
2023/02/01 13:05:36;;;;;;;19.33;4.30;;;9.10;92.40;;;;;;5044931;28;20033;-73
2023/02/01 13:08:17;;;;;;;20.27;5.72;;;9.00;92.20;;;;;;5041079;28;20021;-74
2023/02/01 13:10:47;;;;;;;19.48;4.28;;;9.10;92.40;;;;;;5043310;28;20060;-74
2023/02/01 13:13:31;;;;;;;22.23;4.75;;;9.10;92.70;;;;;;5043771;28;20067;-72
2023/02/01 13:16:13;;;;;;;22.60;4.28;;;9.20;92.70;;;;;;5039233;28;20588;-74
2023/02/01 13:18:45;;;;;;;20.48;3.75;;;9.10;92.70;;;;;;5039961;28;20013;-74
2023/02/01 13:21:17;;;;;;;19.15;4.53;;;9.10;92.40;;;;;;5037947;28;20499;-74
2023/02/01 13:23:46;;;;;;;20.98;4.03;;;9.10;92.30;;;;;;5038488;28;20032;-74
2023/02/01 13:26:12;;;;;;;28.05;6.07;;;9.10;92.10;;;;;;5045036;28;20049;-75
2023/02/01 13:28:41;;;;;;;25.90;4.93;;;9.10;92.10;;;;;;5047998;28;20406;-73
2023/02/01 13:31:28;;;;;;;28.70;4.78;;;9.10;92.30;;;;;;5041246;28;20495;-73
2023/02/01 13:34:21;;;;;;;22.25;4.03;;;9.00;92.00;;;;;;5044434;28;20033;-74